Latest Weather Observations for Yeppoon

IDQ60801

Issued at 9:05 pm EST Friday 31 October 2014 (issued every 30 minutes, with the page automatically refreshed every 10 minutes)

About weather observations | Map of weather stations | Latest weather observations for QLD | Other Formats
Station Details ID: 033294 Name: YEPPOON THE ESPLANADE Lat: -23.14 Lon: 150.75 Height: 5.5 m
Data from the previous 72 hours. | See also: Recent months at Yeppoon
Date/Time
EST
Temp
°C
App
Temp
°C
Dew
Point
Rel
Hum
%
Delta-T
°C
Wind Press
QNH
hPa
Press
MSL
hPa
Rain
since 9 am
mm
Dir
 
Spd
km/h
Gust
km/h
Spd
kts
Gust
kts
31/09:00pm 24.1 23.4 20.2 79 2.5 NNE 24 28 13 15 1015.7 1015.7 0.0
31/08:30pm 24.1 23.8 20.4 80 2.4 NNE 22 28 12 15 1015.5 1015.5 0.0
31/08:00pm 24.1 23.2 19.9 77 2.7 NNE 24 32 13 17 1015.1 1015.1 0.0
31/07:30pm 24.2 22.9 19.9 77 2.8 NNE 26 30 14 16 1015.2 1015.2 0.0
31/07:00pm 24.3 23.5 20.0 77 2.8 NNE 24 28 13 15 1015.0 1015.0 0.0
31/06:30pm 24.3 23.2 19.5 74 3.1 NNE 24 32 13 17 1014.7 1014.7 0.0
31/06:00pm 24.5 23.8 20.2 77 2.8 NNE 24 30 13 16 1014.4 1014.4 0.0
31/05:30pm 24.7 24.3 20.2 76 2.9 NE 22 28 12 15 1014.2 1014.2 0.0
31/05:00pm 24.8 24.6 20.5 77 2.8 NE 22 26 12 14 1014.0 1014.0 0.0
31/04:30pm 25.2 25.0 20.6 75 3.0 NE 22 30 12 16 1013.6 1013.6 0.0
31/04:00pm 25.5 24.9 20.4 73 3.3 NNE 24 28 13 15 1013.8 1013.8 0.0
31/03:30pm 25.5 25.2 20.3 73 3.4 NE 22 28 12 15 1013.9 1013.9 0.0
31/03:00pm 25.5 24.9 20.4 73 3.3 NNE 24 30 13 16 1013.9 1013.9 0.0
31/02:30pm 25.8 25.4 20.1 71 3.7 NE 22 26 12 14 1014.1 1014.1 0.0
31/02:00pm 25.9 25.5 20.1 70 3.8 NE 22 26 12 14 1014.2 1014.2 0.0
31/01:30pm 26.1 25.8 20.3 70 3.8 NE 22 26 12 14 1014.6 1014.6 0.0
31/01:00pm 26.3 26.3 20.2 69 4.0 NE 20 26 11 14 1015.0 1015.0 0.0
31/12:30pm 26.3 26.4 20.0 68 4.1 NE 19 22 10 12 1015.7 1015.7 0.0
31/12:00pm 26.3 26.4 20.0 68 4.1 NE 19 24 10 13 1015.9 1015.9 0.0
31/11:30am 26.3 26.2 20.0 68 4.1 NE 20 24 11 13 1015.9 1015.9 0.0
31/11:00am 26.3 26.9 20.2 69 4.0 NE 17 22 9 12 1016.3 1016.3 0.0
31/10:30am 27.1 28.3 20.0 65 4.6 NE 13 19 7 10 1016.6 1016.6 0.0
31/10:00am 26.2 26.5 19.7 67 4.2 NE 17 22 9 12 1016.7 1016.7 0.0
31/09:30am 26.0 26.4 19.8 68 4.0 NE 17 20 9 11 1016.8 1016.8 0.0
31/09:00am 25.4 25.6 20.2 73 3.4 NNE 19 20 10 11 1016.8 1016.8 0.0
31/08:30am 25.4 27.0 20.7 75 3.1 NE 13 19 7 10 1016.9 1016.9 0.0
31/08:00am 24.5 25.9 20.3 77 2.7 NNE 13 17 7 9 1016.7 1016.7 0.0
31/07:30am 24.1 26.8 20.2 79 2.5 ENE 6 9 3 5 1016.5 1016.5 0.0
31/07:00am 22.4 25.8 20.2 87 1.4 WSW 2 6 1 3 1016.3 1016.3 0.0
31/06:30am 21.3 23.4 19.4 89 1.2 W 7 11 4 6 1016.0 1016.0 0.0
31/06:00am 20.8 23.1 19.4 92 0.9 W 6 9 3 5 1015.6 1015.6 0.0
31/05:30am 21.1 23.8 19.5 90 1.0 SW 4 9 2 5 1015.7 1015.7 0.0
31/05:00am 22.0 23.8 19.6 86 1.5 N 9 11 5 6 1014.8 1014.8 0.0
31/04:30am 21.6 24.0 19.6 88 1.3 NNW 6 9 3 5 1014.5 1014.5 0.0
31/04:00am 22.2 23.4 20.0 87 1.4 N 13 17 7 9 1014.4 1014.4 0.0
31/03:30am 21.5 24.0 19.8 90 1.1 W 6 9 3 5 1014.5 1014.5 0.0
31/03:00am 22.0 24.3 19.8 87 1.4 N 7 9 4 5 1014.6 1014.6 0.0
31/02:30am 22.0 24.0 20.0 88 1.3 N 9 11 5 6 1014.3 1014.3 0.0
31/02:00am 22.6 24.0 20.3 87 1.5 N 13 15 7 8 1014.1 1014.1 0.0
31/01:30am 22.6 24.1 19.8 84 1.8 N 11 15 6 8 1014.7 1014.7 0.0
31/01:00am 22.8 24.5 20.2 85 1.7 N 11 19 6 10 1014.9 1014.9 0.0
31/12:30am 23.7 23.7 20.1 80 2.3 NNE 20 26 11 14 1015.0 1015.0 0.0
31/12:00am 23.9 24.2 20.7 82 2.1 NNE 20 24 11 13 1015.4 1015.4 0.0
 
Date/Time
EST
Temp
°C
App
Temp
°C
Dew
Point
Rel
Hum
%
Delta-T
°C
Wind Press
QNH
hPa
Press
MSL
hPa
Rain
since 9 am
mm
Dir
 
Spd
km/h
Gust
km/h
Spd
kts
Gust
kts
30/11:30pm 24.0 23.8 20.6 81 2.2 NNE 22 26 12 14 1015.6 1015.6 0.0
30/11:00pm 24.0 22.2 20.3 80 2.4 NNE 30 33 16 18 1015.3 1015.3 0.0
30/10:30pm 24.0 22.2 20.3 80 2.4 NNE 30 33 16 18 1015.2 1015.2 0.0
30/10:00pm 24.1 23.0 21.1 83 2.0 NNE 28 33 15 18 1015.1 1015.1 0.0
30/09:30pm 24.1 23.8 21.1 83 2.0 NNE 24 30 13 16 1015.2 1015.2 0.0
30/09:00pm 24.2 24.2 21.0 82 2.1 NE 22 26 12 14 1015.7 1015.7 0.0
30/08:30pm 24.2 24.2 21.0 82 2.1 NE 22 26 12 14 1015.4 1015.4 0.0
30/08:00pm 24.4 24.7 21.5 84 1.9 NNE 22 28 12 15 1015.1 1015.1 0.0
30/07:30pm 24.3 24.3 21.6 85 1.8 NNE 24 30 13 16 1014.7 1014.7 0.0
30/07:00pm 24.4 23.8 21.2 82 2.1 NNE 26 30 14 16 1014.6 1014.6 0.0
30/06:30pm 24.4 24.4 21.7 85 1.8 NNE 24 28 13 15 1014.1 1014.1 0.0
30/06:00pm 24.5 24.8 21.6 84 1.9 NE 22 26 12 14 1013.9 1013.9 0.0
30/05:30pm 24.7 25.3 21.4 82 2.2 NE 20 26 11 14 1013.6 1013.6 0.0
30/05:00pm 24.9 25.5 22.1 84 1.9 NE 22 30 12 16 1013.4 1013.4 0.0
30/04:30pm 25.1 25.3 22.1 83 2.0 NE 24 30 13 16 1013.1 1013.1 0.0
30/04:00pm 25.2 25.4 22.1 83 2.1 NE 24 32 13 17 1012.9 1012.9 0.0
30/03:30pm 25.5 25.3 22.1 81 2.3 NE 26 32 14 17 1012.9 1012.9 0.0
30/03:00pm 26.0 26.2 22.0 78 2.7 NE 24 32 13 17 1013.1 1013.1 0.0
30/02:30pm 25.7 25.6 21.5 77 2.8 NE 24 28 13 15 1013.3 1013.3 0.0
30/02:00pm 26.3 26.5 22.1 77 2.8 NE 24 30 13 16 1013.6 1013.6 0.0
30/01:30pm 26.3 26.4 21.8 76 3.0 NE 24 30 13 16 1013.9 1013.9 0.0
30/01:00pm 25.8 26.2 21.7 78 2.7 ENE 22 28 12 15 1014.3 1014.3 0.0
30/12:30pm 26.2 27.0 21.7 76 3.0 ENE 20 26 11 14 1014.6 1014.6 0.0
30/12:00pm 26.5 27.5 21.7 75 3.2 ENE 19 24 10 13 1015.1 1015.1 0.0
30/11:30am 26.7 27.9 21.4 72 3.5 ENE 17 20 9 11 1015.5 1015.5 0.0
30/11:00am 26.5 27.6 21.2 72 3.5 E 17 22 9 12 1015.6 1015.6 0.0
30/10:30am 26.9 28.3 21.0 70 3.9 ENE 15 20 8 11 1015.8 1015.8 0.0
30/10:00am 26.9 28.4 21.2 71 3.8 ENE 15 19 8 10 1016.0 1016.0 0.0
30/09:30am 26.7 28.1 21.1 71 3.7 ENE 15 22 8 12 1016.3 1016.3 0.0
30/09:00am 26.7 28.5 21.1 71 3.7 ENE 13 17 7 9 1016.4 1016.4 0.0
30/08:30am 25.4 26.6 20.7 75 3.1 ENE 15 20 8 11 1016.5 1016.5 0.0
30/08:00am 25.6 27.8 21.2 76 2.9 ENE 11 15 6 8 1017.0 1017.0 0.0
30/07:30am 24.7 27.2 21.0 80 2.4 NE 9 13 5 7 1016.9 1016.9 0.0
30/07:00am 23.8 28.1 21.2 85 1.7 CALM 0 6 0 3 1016.6 1016.6 0.0
30/06:30am 22.0 24.7 20.6 92 0.9 W 7 9 4 5 1016.7 1016.7 0.0
30/06:00am 21.2 23.4 20.3 95 0.6 W 9 11 5 6 1016.4 1016.4 0.0
30/05:30am 20.9 23.3 20.0 95 0.6 W 7 9 4 5 1015.8 1015.8 0.0
30/05:00am 21.8 24.1 20.7 93 0.7 N 9 13 5 7 1015.3 1015.3 0.0
30/04:30am 21.0 23.5 20.2 95 0.5 N 7 9 4 5 1015.0 1015.0 0.0
30/04:00am 20.8 24.1 20.0 95 0.5 NW 2 6 1 3 1014.7 1014.7 0.0
30/03:30am 20.9 24.6 20.0 95 0.6 CALM 0 0 0 0 1014.3 1014.3 0.0
30/03:00am 21.3 25.1 20.2 93 0.7 CALM 0 0 0 0 1014.0 1014.0 0.0
30/02:30am 21.7 25.7 20.5 93 0.8 CALM 0 0 0 0 1013.8 1013.8 0.0
30/02:00am 22.2 25.2 20.8 92 0.9 N 6 7 3 4 1013.6 1013.6 0.0
30/01:30am 22.2 25.0 20.8 92 0.9 N 7 11 4 6 1013.8 1013.8 0.0
30/01:00am 21.9 25.2 20.8 93 0.7 N 4 7 2 4 1013.9 1013.9 0.0
30/12:30am 22.0 24.8 20.8 93 0.8 N 7 11 4 6 1014.1 1014.1 0.0
30/12:00am 22.2 24.6 20.8 92 0.9 N 9 13 5 7 1014.1 1014.1 0.0
 
Date/Time
EST
Temp
°C
App
Temp
°C
Dew
Point
Rel
Hum
%
Delta-T
°C
Wind Press
QNH
hPa
Press
MSL
hPa
Rain
since 9 am
mm
Dir
 
Spd
km/h
Gust
km/h
Spd
kts
Gust
kts
29/11:30pm 22.7 24.9 21.2 91 1.0 N 11 13 6 7 1014.3 1014.3 0.0
29/11:00pm 22.8 25.3 21.0 89 1.2 N 9 13 5 7 1014.4 1014.4 0.0
29/10:30pm 22.4 25.3 20.7 90 1.1 N 6 9 3 5 1014.4 1014.4 0.0
29/10:00pm 22.6 26.7 20.8 89 1.2 CALM 0 0 0 0 1014.3 1014.3 0.0
29/09:30pm 22.9 27.2 21.1 89 1.2 CALM 0 0 0 0 1014.1 1014.1 0.0
29/09:00pm 23.4 26.5 21.0 86 1.6 NNW 6 6 3 3 1013.8 1013.8 0.0
29/08:30pm 23.9 25.7 21.2 85 1.8 N 13 15 7 8 1013.5 1013.5 0.0
29/08:00pm 24.6 26.9 21.4 82 2.1 NNE 11 13 6 7 1013.2 1013.2 0.0
29/07:30pm 24.7 27.6 21.7 83 2.0 N 9 9 5 5 1012.8 1012.8 0.0
29/07:00pm 24.7 27.8 22.2 86 1.7 NNE 9 13 5 7 1012.5 1012.5 0.0
29/06:30pm 24.8 26.1 22.7 88 1.4 N 20 26 11 14 1011.9 1011.9 0.0
29/06:00pm 24.8 22.9 22.7 88 1.4 N 37 43 20 23 1011.5 1011.5 0.0
29/05:30pm 24.8 22.1 22.6 87 1.5 N 41 46 22 25 1011.0 1011.0 0.0
29/05:00pm 25.2 22.9 22.7 86 1.7 N 39 44 21 24 1011.1 1011.1 0.0
29/04:30pm 25.5 23.3 22.8 85 1.8 N 39 44 21 24 1010.8 1010.8 0.0
29/04:00pm 25.7 23.4 22.7 83 2.0 N 39 46 21 25 1010.7 1010.7 0.0
29/03:30pm 26.0 24.2 22.9 83 2.1 N 37 43 20 23 1010.8 1010.8 0.0
29/03:00pm 26.1 24.4 22.5 80 2.4 N 35 43 19 23 1011.0 1011.0 0.0
29/02:30pm 26.0 25.0 22.7 82 2.2 NNE 32 37 17 20 1011.4 1011.4 0.0
29/02:00pm 26.0 24.7 22.4 80 2.4 NNE 33 37 18 20 1011.6 1011.6 0.0
29/01:30pm 26.1 25.0 22.5 80 2.4 NNE 32 35 17 19 1011.8 1011.8 0.0
29/01:00pm 26.0 25.6 22.4 80 2.4 NNE 28 32 15 17 1012.1 1012.1 0.0
29/12:30pm 26.5 26.3 22.7 79 2.6 NNE 28 33 15 18 1012.3 1012.3 0.0
29/12:00pm 26.5 26.7 22.7 79 2.6 NNE 26 30 14 16 1012.7 1012.7 0.0
29/11:30am 27.0 27.7 22.9 78 2.8 NNE 24 30 13 16 1013.1 1013.1 0.0
29/11:00am 27.7 28.9 22.5 73 3.5 NNE 20 28 11 15 1013.1 1013.1 0.0
29/10:59am 27.8 29.0 22.5 73 3.6 NNE 20 26 11 14 1013.2 1013.2 0.0
29/10:30am 32.8 33.5 17.1 39 10.0 W 9 15 5 8 1013.4 1013.4 0.0
29/10:00am 31.2 31.2 16.2 40 9.4 W 11 19 6 10 1013.5 1013.5 0.0
29/09:30am 30.5 30.5 17.2 44 8.4 WNW 13 20 7 11 1013.6 1013.6 0.0
29/09:00am 29.2 29.9 17.9 50 7.2 WNW 11 15 6 8 1013.8 1013.8 0.0
29/08:30am 27.4 27.1 17.4 54 6.3 W 15 24 8 13 1014.0 1014.0 0.0
29/08:00am 26.4 27.3 18.4 61 5.1 WNW 11 19 6 10 1014.2 1014.2 0.0
29/07:30am 24.6 24.2 18.8 70 3.7 W 19 24 10 13 1014.1 1014.1 0.0
29/07:00am 23.2 24.1 19.3 79 2.5 W 13 17 7 9 1013.8 1013.8 0.0
29/06:30am 23.1 25.6 20.3 84 1.8 W 7 13 4 7 1013.6 1013.6 0.0
29/06:00am 22.7 24.0 20.2 86 1.6 N 13 19 7 10 1013.3 1013.3 0.0
29/05:30am 22.4 24.0 20.7 90 1.1 N 13 17 7 9 1013.0 1013.0 0.0
29/05:00am 23.0 24.7 21.0 88 1.3 NNE 13 19 7 10 1013.0 1013.0 0.0
29/04:30am 23.1 24.6 21.3 90 1.2 NE 15 19 8 10 1013.0 1013.0 0.0
29/04:00am 22.5 24.4 19.8 85 1.7 ESE 9 9 5 5 1013.0 1013.0 0.0
29/03:30am 22.3 23.3 19.5 84 1.8 SSE 13 17 7 9 1012.6 1012.6 0.0
29/03:00am 22.0 22.6 18.5 80 2.2 SSE 13 19 7 10 1012.2 1012.2 0.0
29/02:30am 22.2 23.5 18.5 79 2.3 SE 9 13 5 7 1011.8 1011.8 0.0
29/02:00am 22.2 22.2 18.2 78 2.5 N 15 22 8 12 1011.2 1011.2 0.0
29/01:30am 23.0 23.0 17.3 70 3.5 NW 13 22 7 12 1011.6 1011.6 0.0
29/01:00am 22.2 22.6 18.2 78 2.5 WNW 13 26 7 14 1011.9 1011.9 0.0
29/12:30am 22.0 21.6 18.0 78 2.5 W 17 26 9 14 1012.3 1012.3 0.0
29/12:00am 22.4 21.7 17.4 73 3.1 W 17 26 9 14 1012.5 1012.5 0.0
 
Date/Time
EST
Temp
°C
App
Temp
°C
Dew
Point
Rel
Hum
%
Delta-T
°C
Wind Press
QNH
hPa
Press
MSL
hPa
Rain
since 9 am
mm
Dir
 
Spd
km/h
Gust
km/h
Spd
kts
Gust
kts
28/11:30pm 22.8 23.4 16.8 69 3.7 W 9 15 5 8 1012.4 1012.4 0.0
28/11:00pm 23.1 24.2 17.1 69 3.7 N 7 13 4 7 1012.8 1012.8 0.0
28/10:30pm 23.5 23.2 16.5 65 4.3 N 13 17 7 9 1013.2 1013.2 0.0
28/10:00pm 23.1 23.8 16.2 65 4.2 NNW 7 11 4 6 1013.5 1013.5 0.0
28/09:30pm 23.3 24.8 18.0 72 3.3 S 7 9 4 5 1014.0 1014.0 0.0

Other Formats:

Comma delimited format used in spreadsheet applications
http://www.bom.gov.au/fwo/IDQ60801/IDQ60801.94373.axf

JavaScript Object Notation format (JSON) in row-major order
http://www.bom.gov.au/fwo/IDQ60801/IDQ60801.94373.json